Forside
METAR-TAF:

METAR-TAF

Lufthavne :

Mitiga International Airport

Tripoli, Libyen

Breddekreds: 32-54N, længdekreds: 13-17E, højde: 11 m

Aktuelle vejr

Denne rapport blev lavet for 2 timer og 18 minutter siden, kl. 16:50 UTC
Vind 10 kt fra østnordøst
Temperatur 26°C
Fugtighed 70%
Tryk 1014 hPa
Sigt: 7000 m
Nogle få skyer i en højde af 2500 ft

METAR: HLLM 221650Z 07010KT 7000 FEW025 26/20 Q1014

Tid: 21:08 (19:08 UTC)

Vejrudsigter

Denne rapport blev lavet for 8 timer og 8 minutter siden, kl. 11:00 UTC
Foreløbig gælder fra 22 på 12 UTC til 23 på 12 UTC
Vind 10 kt fra østnordøst
Sigt 10 km eller mere
Nogle få skyer i en højde af 2500 ft
ændring
fra 23 på 00 UTC til 23 på 02 UTC
Vind 2 kt fra varierende retninger
Sigt: 8000 m

TAF: HLLM 221100Z 2212/2312 07010KT 9999 FEW025 BECMG 2300/2302 VRB02KT 8000 NSC

Vejrobservationer og prognoser fra mere end 4000 lufthavne (METAR og TAF).

De gule og røde prikker repræsenterer de meteorologiske stationer.

Flyt musen over at se navnet på stationen.

Så klik over at se vejr observationer og prognoser.

At skifte det kort: Klik på de grønne knapper med et sort kors for at zoome ind; på den grønne knap med en bindestreg for at zoome ud; eller på de grønne pile for tilstødende kort.


METAR-TAF: